KBVO

Bartlesville Municipal Airport

Bartlesville, Oklahoma, USA
METAR KBVO 150053Z AUTO 19008KT 10SM SCT027 BKN065 BKN085 26/22 A2987 RMK AO2 SLP103 T02610222
Observed Flight Rules
Aug-15 @ 00:53 UTC (12 minutes ago) Visual Flight Rules
Wind Visibility Clouds
190° at 8 knots 10 miles
  • Scattered at 2,700' AGL
  • Broken at 6,500' AGL
  • Broken at 8,500' AGL
Temperatures Readings
Current 26°C / 79°F
Dewpoint 22°C / 72°F
Humidity 79%
Altimeter 29.87" Hg
Pressure 1010.3 hPa
Elevation 210
METAR KBVO 150053Z AUTO 19008KT 10SM SCT027 BKN065 BKN085 26/22 A2987 RMK AO2 SLP103 T02610222
Observed Flight Rules
Aug-15 @ 00:53 UTC
(12 minutes ago)
VFR
Wind Visibility
190° at 8 knots 10 miles
Clouds
  • Scattered at 2,700' AGL
  • Broken at 6,500' AGL
  • Broken at 8,500' AGL
Temperature Dewpoint
26°C / 79°F 22°C / 72°F
Humidity Altimeter Pressure
79% 29.87" Hg 1010.3 hPa